Time;durP1;ratioP1;P1;durP2;ratioP2;P2;SDS_P1;SDS_P2;PMS_P1;PMS_P2;Temp;Humidity;BMP_temperature;BMP_pressure;BME280_temperature;BME280_humidity;BME280_pressure;Samples;Min_cycle;Max_cycle;Signal;HPM_P1;HPM_P2
2022/03/03 00:01:59;;;;;;;27.92;19.55;;;;;;;5.66;49.56;101947.25;5010183;28;20030;-62
2022/03/03 00:04:25;;;;;;;25.23;20.02;;;;;;;5.70;49.18;101946.81;5009793;28;20030;-62
2022/03/03 00:06:50;;;;;;;25.80;19.85;;;;;;;5.72;49.33;101948.34;5010655;28;20495;-62
2022/03/03 00:09:16;;;;;;;26.23;19.02;;;;;;;5.71;49.45;101945.81;5010428;28;20025;-62
2022/03/03 00:11:41;;;;;;;26.83;18.92;;;;;;;5.71;48.94;101934.78;5009642;28;20161;-62
2022/03/03 00:14:07;;;;;;;25.02;18.90;;;;;;;5.71;48.87;101926.53;5007875;28;20029;-62
2022/03/03 00:16:35;;;;;;;25.65;18.23;;;;;;;5.73;48.48;101936.28;5010422;28;20441;-62
2022/03/03 00:19:01;;;;;;;25.73;19.73;;;;;;;5.75;48.15;101931.44;5009025;28;20037;-62
2022/03/03 00:21:26;;;;;;;26.75;19.15;;;;;;;5.77;47.98;101929.31;4992746;28;20038;-62
2022/03/03 00:23:51;;;;;;;26.27;19.77;;;;;;;5.77;47.83;101923.81;5008684;28;20029;-62
2022/03/03 00:26:19;;;;;;;26.15;19.30;;;;;;;5.78;47.37;101921.94;5009788;28;20018;-62
2022/03/03 00:28:45;;;;;;;25.63;19.55;;;;;;;5.74;48.34;101928.84;5010577;28;20811;-62
2022/03/03 00:31:10;;;;;;;27.77;19.77;;;;;;;5.69;48.27;101929.44;5008361;28;20026;-62
2022/03/03 00:33:35;;;;;;;25.25;19.40;;;;;;;5.67;48.97;101917.78;5009476;28;20109;-62
2022/03/03 00:36:01;;;;;;;24.75;19.50;;;;;;;5.67;48.49;101926.06;5010049;28;20026;-62
2022/03/03 00:38:26;;;;;;;25.65;19.95;;;;;;;5.69;47.90;101931.34;5008941;28;20045;-62
2022/03/03 00:40:51;;;;;;;26.92;19.52;;;;;;;5.63;48.51;101927.50;5007009;28;20038;-62
2022/03/03 00:43:17;;;;;;;28.67;19.73;;;;;;;5.62;48.74;101921.13;5002665;28;20093;-62
2022/03/03 00:45:42;;;;;;;27.75;19.45;;;;;;;5.60;49.10;101923.22;5008642;28;20050;-62
2022/03/03 00:48:08;;;;;;;29.60;19.63;;;;;;;5.60;48.39;101920.47;5010759;28;20030;-61
2022/03/03 00:50:35;;;;;;;25.15;19.52;;;;;;;5.53;49.15;101919.53;5014269;28;20485;-62
2022/03/03 00:53:01;;;;;;;26.98;20.17;;;;;;;5.48;49.12;101926.66;5013579;28;20026;-62
2022/03/03 00:55:26;;;;;;;30.52;20.42;;;;;;;5.43;48.41;101919.00;5012625;28;20038;-62
2022/03/03 00:57:52;;;;;;;27.98;19.52;;;;;;;5.31;48.93;101915.88;5013759;28;20042;-62
2022/03/03 01:00:18;;;;;;;27.67;20.38;;;;;;;5.25;48.89;101921.28;5012224;28;20433;-62
2022/03/03 01:02:45;;;;;;;30.05;20.02;;;;;;;5.16;48.65;101912.28;5012832;28;20112;-62
2022/03/03 01:05:11;;;;;;;29.77;20.17;;;;;;;5.12;48.50;101911.81;5013140;28;20034;-62
2022/03/03 01:07:36;;;;;;;28.45;21.08;;;;;;;5.11;49.05;101914.78;5013137;28;20032;-62
2022/03/03 01:10:02;;;;;;;29.63;20.80;;;;;;;5.10;49.37;101913.91;5019536;28;20041;-62
2022/03/03 01:12:28;;;;;;;26.15;19.63;;;;;;;5.00;49.70;101921.59;5014156;28;20032;-62
2022/03/03 01:14:55;;;;;;;30.38;21.02;;;;;;;4.95;49.51;101915.78;5012816;28;20128;-62
2022/03/03 01:17:21;;;;;;;32.42;21.17;;;;;;;4.92;49.91;101916.19;5013684;28;20760;-62
2022/03/03 01:19:46;;;;;;;26.40;20.63;;;;;;;4.86;49.71;101914.19;5008715;28;20117;-62
2022/03/03 01:22:11;;;;;;;27.30;20.38;;;;;;;4.83;49.49;101912.66;5001828;28;20560;-62
2022/03/03 01:24:40;;;;;;;30.05;20.25;;;;;;;4.79;49.61;101910.50;5013187;28;20108;-62
2022/03/03 01:27:05;;;;;;;29.10;21.20;;;;;;;4.75;49.42;101911.91;5011767;28;20486;-62
2022/03/03 01:29:30;;;;;;;28.35;19.90;;;;;;;4.75;49.94;101909.16;4999933;28;20096;-62
2022/03/03 01:31:56;;;;;;;29.70;21.15;;;;;;;4.71;49.55;101908.69;5013125;28;20041;-62
2022/03/03 01:34:21;;;;;;;27.65;20.17;;;;;;;4.65;49.68;101909.44;5012506;28;20106;-62
2022/03/03 01:36:46;;;;;;;26.27;20.25;;;;;;;4.67;49.81;101904.59;5012900;28;20387;-61
2022/03/03 01:39:11;;;;;;;30.25;20.45;;;;;;;4.64;49.83;101897.59;5012888;28;20137;-62
2022/03/03 01:41:38;;;;;;;27.02;19.35;;;;;;;4.61;50.04;101892.47;5012178;28;20192;-62
2022/03/03 01:44:04;;;;;;;27.75;20.17;;;;;;;4.61;50.41;101889.72;5018750;28;20597;-61
2022/03/03 01:46:30;;;;;;;29.73;20.45;;;;;;;4.58;50.79;101884.59;5011536;28;20038;-62
2022/03/03 01:48:55;;;;;;;26.95;19.42;;;;;;;4.59;51.24;101882.69;5012044;28;20077;-62
2022/03/03 01:51:21;;;;;;;26.75;19.52;;;;;;;4.54;51.10;101877.75;5011582;28;20104;-62
2022/03/03 01:53:46;;;;;;;30.90;20.35;;;;;;;4.47;51.23;101874.06;5010817;28;20100;-62
2022/03/03 01:56:12;;;;;;;30.00;20.35;;;;;;;4.54;51.23;101879.66;5005702;28;20037;-62
2022/03/03 01:58:38;;;;;;;30.88;21.15;;;;;;;4.49;51.73;101882.97;4998413;28;20362;-62
2022/03/03 02:01:04;;;;;;;28.35;20.60;;;;;;;4.46;51.21;101872.34;5011416;28;20033;-62
2022/03/03 02:03:30;;;;;;;33.13;20.48;;;;;;;4.45;51.31;101881.66;5011739;28;20034;-62
2022/03/03 02:05:56;;;;;;;26.25;19.75;;;;;;;4.37;51.20;101868.84;5011599;28;20018;-62
2022/03/03 02:08:23;;;;;;;29.30;20.85;;;;;;;4.37;51.60;101868.00;5012527;28;20091;-62
2022/03/03 02:10:48;;;;;;;29.52;20.38;;;;;;;4.34;51.48;101862.88;5012230;28;20072;-62
2022/03/03 02:13:14;;;;;;;26.38;19.08;;;;;;;4.31;51.93;101860.47;5011607;28;20116;-62
2022/03/03 02:15:47;;;;;;;27.33;19.65;;;;;;;4.31;51.79;101858.59;5012235;28;20133;-62
2022/03/03 02:18:12;;;;;;;28.05;19.77;;;;;;;4.27;51.75;101851.75;5011854;28;20834;-62
2022/03/03 02:20:38;;;;;;;26.65;20.00;;;;;;;4.26;52.09;101854.72;5012157;28;20041;-62
2022/03/03 02:23:03;;;;;;;27.50;20.45;;;;;;;4.22;52.37;101859.72;5019287;28;20026;-62
2022/03/03 02:25:28;;;;;;;26.23;18.92;;;;;;;4.26;51.59;101849.22;5011239;28;20029;-61
2022/03/03 02:27:56;;;;;;;31.55;19.52;;;;;;;4.19;52.51;101849.09;5012387;28;20492;-62
2022/03/03 02:30:22;;;;;;;23.98;18.95;;;;;;;4.17;52.40;101845.69;5010329;28;20049;-62
2022/03/03 02:32:47;;;;;;;27.77;19.35;;;;;;;4.20;52.62;101850.78;5012374;28;20034;-62
2022/03/03 02:35:13;;;;;;;27.05;19.52;;;;;;;4.22;51.98;101842.38;5011790;28;20099;-62
2022/03/03 02:37:42;;;;;;;25.05;19.17;;;;;;;4.17;52.18;101846.53;5031219;28;20124;-62
2022/03/03 02:40:10;;;;;;;26.35;20.65;;;;;;;4.23;52.69;101855.91;5011138;28;20065;-62
2022/03/03 02:42:37;;;;;;;28.00;20.73;;;;;;;4.27;52.00;101845.41;5012141;28;20116;-62
2022/03/03 02:45:04;;;;;;;25.00;19.90;;;;;;;4.22;52.41;101847.88;5004443;28;20105;-62
2022/03/03 02:47:29;;;;;;;28.63;20.13;;;;;;;4.21;52.75;101849.78;5012176;28;20045;-62
2022/03/03 02:49:54;;;;;;;33.13;20.63;;;;;;;4.15;52.51;101854.09;5011726;28;20385;-62
2022/03/03 02:52:20;;;;;;;26.98;19.45;;;;;;;4.15;52.26;101845.84;5010970;28;20030;-61
2022/03/03 02:54:45;;;;;;;27.45;20.15;;;;;;;4.10;52.40;101845.56;5010489;28;20029;-62
2022/03/03 02:59:54;;;;;;;31.15;20.77;;;;;;;4.12;52.14;101842.63;5010014;28;20466;-62
2022/03/03 03:02:20;;;;;;;27.35;21.17;;;;;;;4.10;52.40;101829.09;5011539;28;20038;-62
2022/03/03 03:04:45;;;;;;;28.55;21.38;;;;;;;4.08;52.14;101833.91;5013193;28;20508;-62
2022/03/03 03:07:10;;;;;;;28.80;19.92;;;;;;;4.02;52.42;101836.56;5030755;28;20034;-62
2022/03/03 03:09:35;;;;;;;26.40;21.30;;;;;;;4.01;52.43;101840.31;5010656;28;20104;-62
2022/03/03 03:12:01;;;;;;;27.40;20.55;;;;;;;4.00;52.14;101835.88;5009322;28;20037;-62
2022/03/03 03:14:27;;;;;;;30.95;21.35;;;;;;;3.96;52.55;101840.88;5009620;28;20029;-62
2022/03/03 03:16:52;;;;;;;25.35;19.63;;;;;;;3.94;52.72;101832.00;5010257;28;20045;-62
2022/03/03 03:19:17;;;;;;;26.05;20.48;;;;;;;3.86;52.56;101837.56;5010643;28;20034;-62
2022/03/03 03:21:43;;;;;;;28.77;21.20;;;;;;;3.85;53.33;101844.97;5010331;28;20384;-62
2022/03/03 03:24:11;;;;;;;30.25;20.88;;;;;;;3.88;52.68;101839.06;5010539;28;20044;-63
2022/03/03 03:26:36;;;;;;;28.98;21.25;;;;;;;3.84;53.71;101831.38;4996243;28;20030;-62
2022/03/03 03:29:02;;;;;;;29.58;20.67;;;;;;;3.82;53.06;101825.25;5013271;28;20084;-62
2022/03/03 03:31:27;;;;;;;28.83;21.70;;;;;;;3.86;53.34;101823.84;5010994;28;20037;-62
2022/03/03 03:33:53;;;;;;;27.70;20.75;;;;;;;3.85;53.47;101817.50;5009588;28;20084;-62
2022/03/03 03:36:18;;;;;;;28.35;20.25;;;;;;;3.80;53.35;101827.31;5011134;28;20718;-62
2022/03/03 03:38:44;;;;;;;26.50;19.83;;;;;;;3.80;53.10;101819.91;5010113;28;20123;-62
2022/03/03 03:41:10;;;;;;;28.20;20.35;;;;;;;3.69;52.58;101807.50;4998088;28;20548;-62
2022/03/03 03:43:36;;;;;;;29.05;21.17;;;;;;;3.69;53.39;101818.50;5010381;28;20058;-62
2022/03/03 03:46:01;;;;;;;27.20;21.25;;;;;;;3.64;53.00;101815.41;5008603;28;20361;-62
2022/03/03 03:48:27;;;;;;;26.98;19.55;;;;;;;3.62;53.09;101812.03;5010151;28;20388;-62
2022/03/03 03:50:52;;;;;;;26.15;19.45;;;;;;;3.64;53.73;101812.66;5009592;28;20033;-62
2022/03/03 03:53:17;;;;;;;26.95;19.80;;;;;;;3.54;53.75;101803.00;5017718;28;20508;-62
2022/03/03 03:55:43;;;;;;;27.95;20.38;;;;;;;3.56;53.17;101798.16;5009726;28;20077;-62
2022/03/03 03:58:08;;;;;;;24.42;19.75;;;;;;;3.56;53.06;101798.16;5010897;28;20116;-62
2022/03/03 04:00:37;;;;;;;26.05;20.15;;;;;;;3.51;53.89;101801.47;5010157;28;20026;-62
2022/03/03 04:03:02;;;;;;;28.85;20.50;;;;;;;3.48;54.01;101803.72;5008378;28;20030;-62
2022/03/03 04:05:27;;;;;;;26.67;20.38;;;;;;;3.48;54.38;101804.56;5010196;28;20032;-62
2022/03/03 04:07:53;;;;;;;27.30;20.88;;;;;;;3.43;54.14;101805.13;5010340;28;20437;-62
2022/03/03 04:10:18;;;;;;;27.90;21.17;;;;;;;3.43;54.48;101810.63;5009400;28;20037;-62
2022/03/03 04:12:43;;;;;;;25.65;20.08;;;;;;;3.40;54.53;101807.38;5019223;28;20034;-62
2022/03/03 04:15:09;;;;;;;26.85;20.05;;;;;;;3.41;54.41;101817.31;5016176;28;20030;-62
2022/03/03 04:17:35;;;;;;;26.58;20.30;;;;;;;3.40;54.65;101808.22;5008949;28;20034;-62
2022/03/03 04:20:00;;;;;;;28.83;20.27;;;;;;;3.43;54.50;101807.03;5010375;28;20205;-62
2022/03/03 04:22:25;;;;;;;26.50;19.58;;;;;;;3.46;54.42;101803.91;5009081;28;20496;-61
2022/03/03 04:24:51;;;;;;;28.80;21.60;;;;;;;3.43;53.96;101791.41;5013675;28;20065;-61
2022/03/03 04:27:20;;;;;;;28.38;20.88;;;;;;;3.41;54.13;101787.13;5030470;28;22029;-61
2022/03/03 04:29:46;;;;;;;27.33;19.58;;;;;;;3.39;54.08;101789.22;5013916;28;20611;-61
2022/03/03 04:32:11;;;;;;;28.48;20.77;;;;;;;3.39;54.43;101794.69;5003033;28;20030;-61
2022/03/03 04:34:37;;;;;;;29.33;20.80;;;;;;;3.36;54.53;101781.34;5024492;28;20041;-62
2022/03/03 04:37:02;;;;;;;26.77;19.95;;;;;;;3.40;54.62;101779.94;4996243;28;20038;-61
2022/03/03 04:39:28;;;;;;;29.35;20.85;;;;;;;3.44;53.92;101778.53;5012291;28;20464;-61
2022/03/03 04:41:53;;;;;;;29.20;20.58;;;;;;;3.39;54.86;101775.50;5011820;28;20071;-61
2022/03/03 04:44:18;;;;;;;28.98;21.05;;;;;;;3.38;54.36;101776.50;5013414;28;20413;-61
2022/03/03 04:46:44;;;;;;;28.23;19.90;;;;;;;3.37;53.95;101772.06;5013307;28;20377;-61
2022/03/03 04:49:09;;;;;;;28.27;20.80;;;;;;;3.31;53.63;101770.06;5009925;28;20038;-61
2022/03/03 04:51:39;;;;;;;37.72;20.75;;;;;;;3.28;54.37;101771.28;4994816;28;20031;-61
2022/03/03 04:54:05;;;;;;;25.90;20.67;;;;;;;3.25;53.97;101762.56;5010719;28;20034;-61
2022/03/03 04:56:30;;;;;;;27.75;20.58;;;;;;;3.22;54.40;101760.16;5013849;28;20042;-61
2022/03/03 04:58:55;;;;;;;28.38;20.73;;;;;;;3.20;54.12;101760.34;5012024;28;20046;-61
2022/03/03 05:01:24;;;;;;;31.45;21.05;;;;;;;3.24;54.47;101764.44;5012956;28;20038;-61
2022/03/03 05:03:49;;;;;;;27.15;19.67;;;;;;;3.26;54.64;101767.00;5012310;28;20025;-61
2022/03/03 05:06:14;;;;;;;27.60;19.88;;;;;;;3.25;55.06;101760.66;5012688;28;20426;-61
2022/03/03 05:08:40;;;;;;;27.92;20.27;;;;;;;3.24;55.00;101766.34;5012609;28;20465;-61
2022/03/03 05:11:05;;;;;;;27.33;19.88;;;;;;;3.24;54.78;101774.56;5014037;28;20034;-61
2022/03/03 05:13:31;;;;;;;30.13;20.30;;;;;;;3.24;54.83;101767.19;5012307;28;20033;-61
2022/03/03 05:15:56;;;;;;;28.42;20.48;;;;;;;3.27;54.91;101775.06;5011912;28;20473;-61
2022/03/03 05:18:21;;;;;;;29.35;19.80;;;;;;;3.24;54.63;101780.06;5013225;28;20839;-61
2022/03/03 05:20:47;;;;;;;26.75;20.17;;;;;;;3.24;54.00;101772.69;5017522;28;20048;-61
2022/03/03 05:23:12;;;;;;;28.13;19.98;;;;;;;3.19;54.05;101775.97;5015895;28;20027;-61
2022/03/03 05:25:40;;;;;;;30.00;20.45;;;;;;;3.16;54.01;101776.31;5012594;28;20390;-61
2022/03/03 05:28:07;;;;;;;30.65;20.88;;;;;;;3.10;54.04;101774.28;4999950;28;20065;-61
2022/03/03 05:30:32;;;;;;;27.30;20.73;;;;;;;3.08;54.75;101776.38;5012255;28;20113;-61
2022/03/03 05:32:58;;;;;;;27.33;21.02;;;;;;;3.07;54.90;101779.31;5012671;28;20168;-61
2022/03/03 05:35:24;;;;;;;30.20;21.02;;;;;;;3.06;54.38;101778.44;5011727;28;20045;-61
2022/03/03 05:37:49;;;;;;;29.38;21.20;;;;;;;3.02;54.50;101774.34;5009961;28;20037;-62
2022/03/03 05:40:15;;;;;;;26.00;19.13;;;;;;;3.02;54.61;101781.72;5012071;28;20036;-61
2022/03/03 05:42:40;;;;;;;28.00;19.95;;;;;;;2.96;54.53;101783.31;5011941;28;20029;-61
2022/03/03 05:45:06;;;;;;;30.80;19.70;;;;;;;3.02;55.17;101788.06;5012889;28;20036;-61
2022/03/03 05:47:33;;;;;;;24.92;19.73;;;;;;;2.98;54.58;101789.47;5010826;28;20037;-61
2022/03/03 05:50:00;;;;;;;29.13;21.05;;;;;;;2.91;55.23;101789.34;5012526;28;20034;-61
2022/03/03 05:52:26;;;;;;;28.10;20.00;;;;;;;2.95;54.51;101789.84;5007696;28;20169;-61
2022/03/03 05:54:52;;;;;;;26.67;20.17;;;;;;;2.90;54.56;101790.38;5010600;28;20109;-61
2022/03/03 05:57:34;;;;;;;27.60;20.10;;;;;;;2.94;54.52;101785.38;5002777;28;20034;-61
2022/03/03 06:00:06;;;;;;;25.73;19.13;;;;;;;2.90;54.59;101781.28;5001672;28;20025;-61
2022/03/03 06:02:31;;;;;;;32.28;20.48;;;;;;;2.87;55.36;101777.03;5006750;28;20022;-61
2022/03/03 06:04:57;;;;;;;28.63;20.15;;;;;;;2.86;55.24;101788.16;5008440;28;20172;-61
2022/03/03 06:07:25;;;;;;;27.27;19.75;;;;;;;2.82;54.80;101779.44;5004119;28;20029;-61
2022/03/03 06:09:52;;;;;;;34.58;21.20;;;;;;;2.79;55.21;101773.47;5011779;28;20184;-61
2022/03/03 06:12:25;;;;;;;27.10;20.05;;;;;;;2.82;55.04;101779.44;5012238;28;20034;-62
2022/03/03 06:14:58;;;;;;;27.92;20.13;;;;;;;2.80;55.15;101775.19;5011435;28;20496;-62
2022/03/03 06:17:24;;;;;;;28.27;19.67;;;;;;;2.81;55.69;101771.41;5010594;28;20041;-61
2022/03/03 06:19:51;;;;;;;29.23;20.98;;;;;;;2.82;55.10;101773.09;5009845;28;20113;-61
2022/03/03 06:22:18;;;;;;;27.08;19.45;;;;;;;2.83;54.97;101772.06;5012543;28;20504;-61
2022/03/03 06:24:43;;;;;;;27.88;19.95;;;;;;;2.85;55.43;101779.09;5011117;28;20038;-61
2022/03/03 06:27:09;;;;;;;27.73;19.20;;;;;;;2.88;55.74;101769.66;5012430;28;20531;-61
2022/03/03 06:29:35;;;;;;;26.77;19.23;;;;;;;2.85;55.15;101770.88;5010615;28;20439;-61
2022/03/03 06:32:02;;;;;;;30.98;19.80;;;;;;;2.84;55.00;101777.38;5012431;28;20822;-61
2022/03/03 06:34:27;;;;;;;33.63;21.00;;;;;;;2.88;55.61;101786.13;5011073;28;20026;-61
2022/03/03 06:36:53;;;;;;;31.55;20.98;;;;;;;2.84;55.57;101782.88;5011170;28;20029;-61
2022/03/03 06:39:21;;;;;;;33.33;21.17;;;;;;;2.84;55.78;101782.88;5011586;28;20104;-61
2022/03/03 06:41:50;;;;;;;32.17;20.33;;;;;;;2.82;55.66;101781.34;5021478;28;20168;-61
2022/03/03 06:44:15;;;;;;;27.52;20.02;;;;;;;2.77;55.19;101770.06;5011474;28;20041;-61
2022/03/03 06:46:42;;;;;;;27.15;19.70;;;;;;;2.81;55.54;101779.63;5010707;28;20492;-61
2022/03/03 06:49:07;;;;;;;26.98;20.67;;;;;;;2.78;55.18;101789.06;5011050;28;20034;-62
2022/03/03 06:51:44;;;;;;;33.03;20.75;;;;;;;2.82;54.79;101790.41;5010188;28;20049;-61
2022/03/03 06:54:16;;;;;;;29.45;19.70;;;;;;;2.77;55.05;101800.22;5011559;28;20045;-62
2022/03/03 06:56:50;;;;;;;33.67;21.40;;;;;;;2.81;56.10;101798.81;5011833;28;20026;-61
2022/03/03 06:59:17;;;;;;;28.23;20.23;;;;;;;2.84;55.61;101803.97;5009363;28;20132;-62
2022/03/03 07:01:48;;;;;;;29.23;20.90;;;;;;;2.84;55.32;101798.47;5010998;28;20030;-62
2022/03/03 07:04:14;;;;;;;27.08;20.25;;;;;;;2.87;55.76;101798.97;5010717;28;20040;-62
2022/03/03 07:06:41;;;;;;;30.92;20.88;;;;;;;2.87;56.00;101800.84;5012609;28;20076;-62
2022/03/03 07:09:08;;;;;;;30.52;21.00;;;;;;;2.95;55.64;101806.31;5011664;28;20469;-62
2022/03/03 07:11:38;;;;;;;27.50;21.13;;;;;;;2.92;55.20;101799.28;5010919;28;20045;-61
2022/03/03 07:14:03;;;;;;;33.72;21.98;;;;;;;2.97;55.11;101811.59;5010174;28;20033;-62
2022/03/03 07:16:34;;;;;;;29.33;20.95;;;;;;;3.04;55.17;101807.97;5011007;28;20018;-62
2022/03/03 07:19:03;;;;;;;31.13;20.80;;;;;;;2.99;55.19;101807.66;5008707;28;20481;-62
2022/03/03 07:21:54;;;;;;;28.48;20.92;;;;;;;3.07;55.17;101804.84;5008099;28;20039;-62
2022/03/03 07:24:29;;;;;;;26.40;20.08;;;;;;;3.09;54.61;101807.41;5004347;28;20050;-62
2022/03/03 07:26:59;;;;;;;27.88;20.27;;;;;;;3.13;54.78;101809.59;5005921;28;20488;-61
2022/03/03 07:29:33;;;;;;;32.03;21.75;;;;;;;3.25;55.20;101807.31;5007184;28;20022;-61
2022/03/03 07:32:04;;;;;;;30.35;21.98;;;;;;;3.28;55.20;101811.59;5005447;28;20054;-61
2022/03/03 07:34:32;;;;;;;30.15;20.83;;;;;;;3.30;53.97;101809.50;5003519;28;20033;-61
2022/03/03 07:37:04;;;;;;;30.35;20.15;;;;;;;3.40;54.27;101810.97;5009950;28;20042;-61
2022/03/03 07:39:40;;;;;;;30.33;21.00;;;;;;;3.45;53.52;101813.16;5002139;28;20049;-61
2022/03/03 07:42:17;;;;;;;29.27;20.52;;;;;;;3.54;53.41;101808.50;5003990;28;20085;-61
2022/03/03 07:44:44;;;;;;;28.05;20.90;;;;;;;3.61;53.60;101815.78;5005607;28;20057;-61
2022/03/03 07:47:10;;;;;;;30.65;20.98;;;;;;;3.70;52.79;101808.34;5005970;28;20545;-61
2022/03/03 07:49:40;;;;;;;31.77;22.42;;;;;;;3.83;52.66;101805.81;5008069;28;20108;-60
2022/03/03 07:52:07;;;;;;;27.65;19.67;;;;;;;3.91;51.70;101804.91;5005949;28;20033;-60
2022/03/03 07:54:36;;;;;;;27.63;20.70;;;;;;;4.01;52.25;101807.38;5005740;28;20083;-60
2022/03/03 07:57:04;;;;;;;28.95;21.13;;;;;;;4.09;52.02;101810.06;5001972;28;20118;-60
2022/03/03 07:59:35;;;;;;;29.02;20.85;;;;;;;4.23;51.62;101806.47;5005631;28;20044;-61
2022/03/03 08:02:03;;;;;;;26.85;20.02;;;;;;;4.35;50.89;101809.59;5005663;28;20420;-61
2022/03/03 08:04:32;;;;;;;30.33;20.75;;;;;;;4.47;51.06;101816.31;5001574;28;20041;-61
2022/03/03 08:07:06;;;;;;;25.73;19.20;;;;;;;4.60;50.42;101822.03;5006676;28;20030;-63
2022/03/03 08:09:33;;;;;;;26.25;19.08;;;;;;;4.75;49.19;101813.75;5006314;28;20026;-60
2022/03/03 08:12:02;;;;;;;31.08;19.05;;;;;;;4.90;48.39;101813.72;5004839;28;20112;-61
2022/03/03 08:14:29;;;;;;;28.23;19.73;;;;;;;5.00;48.11;101819.81;5002887;28;20028;-63
2022/03/03 08:16:54;;;;;;;25.17;18.48;;;;;;;5.15;47.33;101820.63;5001864;28;20394;-63
2022/03/03 08:19:24;;;;;;;24.92;19.13;;;;;;;5.29;47.57;101818.00;5003580;28;20026;-61
2022/03/03 08:21:50;;;;;;;25.25;17.98;;;;;;;5.39;46.91;101819.41;5004415;28;20025;-59
2022/03/03 08:24:16;;;;;;;26.17;18.60;;;;;;;5.52;46.54;101817.84;5004193;28;20029;-58
2022/03/03 08:26:43;;;;;;;25.50;18.77;;;;;;;5.62;45.90;101804.59;4998235;28;20029;-59
2022/03/03 08:29:09;;;;;;;25.95;18.27;;;;;;;5.73;45.54;101797.69;4998093;28;20037;-60
2022/03/03 08:31:38;;;;;;;25.02;18.25;;;;;;;5.84;44.88;101799.91;4997556;28;20096;-60
2022/03/03 08:34:12;;;;;;;28.67;19.75;;;;;;;5.95;44.78;101802.16;5001113;28;20577;-61
2022/03/03 08:36:47;;;;;;;25.83;19.25;;;;;;;6.05;45.03;101802.69;4997471;28;20039;-61
2022/03/03 08:39:18;;;;;;;25.70;18.98;;;;;;;6.19;44.36;101808.28;5001532;28;20057;-61
2022/03/03 08:41:44;;;;;;;23.58;18.10;;;;;;;6.27;43.90;101800.69;5000856;28;20121;-60
2022/03/03 08:44:12;;;;;;;29.02;18.83;;;;;;;6.37;43.77;101806.72;4999880;28;20026;-60
2022/03/03 08:46:40;;;;;;;24.92;18.02;;;;;;;6.47;43.70;101809.09;4999431;28;20154;-61
2022/03/03 08:49:11;;;;;;;26.85;18.63;;;;;;;6.56;43.76;101813.44;5002691;28;20682;-60
2022/03/03 08:51:38;;;;;;;24.67;17.90;;;;;;;6.66;43.70;101810.28;4999196;28;20108;-59
2022/03/03 08:54:04;;;;;;;28.00;18.25;;;;;;;6.76;42.95;101808.00;5003824;28;20032;-60
2022/03/03 08:56:29;;;;;;;28.30;18.45;;;;;;;6.89;43.39;101809.97;5002036;28;20045;-60
2022/03/03 08:58:55;;;;;;;25.95;18.20;;;;;;;7.00;42.90;101806.63;4998152;28;20033;-61
2022/03/03 09:01:21;;;;;;;28.55;18.30;;;;;;;7.12;42.18;101802.22;5003020;28;20080;-61
2022/03/03 09:03:49;;;;;;;24.00;17.80;;;;;;;7.23;41.92;101806.28;5002332;28;20065;-59
2022/03/03 09:06:16;;;;;;;24.95;18.52;;;;;;;7.38;41.78;101808.84;5004802;28;20109;-58
2022/03/03 09:08:42;;;;;;;22.67;17.48;;;;;;;7.50;42.47;101807.19;4997765;28;20498;-61
2022/03/03 09:11:08;;;;;;;22.60;17.23;;;;;;;7.61;41.70;101809.34;5007248;28;20092;-60
2022/03/03 09:13:33;;;;;;;26.67;18.30;;;;;;;7.75;42.08;101804.69;5002121;28;20030;-59
2022/03/03 09:15:59;;;;;;;22.67;16.98;;;;;;;7.87;41.53;101802.16;5007024;28;20026;-61
2022/03/03 09:18:25;;;;;;;24.33;17.52;;;;;;;7.99;40.40;101808.72;5008985;28;20124;-61
2022/03/03 09:20:50;;;;;;;24.42;17.38;;;;;;;8.01;39.36;101801.06;5012522;28;20026;-60
2022/03/03 09:23:16;;;;;;;23.40;16.80;;;;;;;8.06;40.10;101814.28;5013519;28;20037;-60
2022/03/03 09:25:41;;;;;;;23.25;15.85;;;;;;;8.09;40.33;101800.84;5013352;28;20028;-60
2022/03/03 09:28:07;;;;;;;21.38;16.38;;;;;;;8.20;39.90;101806.81;5013664;28;20052;-60
2022/03/03 09:30:36;;;;;;;23.05;17.50;;;;;;;8.28;38.53;101801.06;5010058;28;20458;-61
2022/03/03 09:33:03;;;;;;;21.92;16.20;;;;;;;8.36;39.25;101798.06;5012082;28;20026;-60
2022/03/03 09:35:28;;;;;;;23.20;16.13;;;;;;;8.42;38.89;101796.41;5011364;28;20553;-60
2022/03/03 09:37:53;;;;;;;23.73;17.30;;;;;;;8.44;38.53;101797.00;5012672;28;20054;-61
2022/03/03 09:40:19;;;;;;;24.20;15.90;;;;;;;8.51;38.46;101792.31;5012807;28;20543;-60
2022/03/03 09:42:56;;;;;;;22.20;16.73;;;;;;;8.62;39.06;101782.50;5012777;28;20026;-60
2022/03/03 09:45:22;;;;;;;25.13;16.35;;;;;;;8.68;38.82;101776.09;5005347;28;20042;-59
2022/03/03 09:47:51;;;;;;;22.98;16.48;;;;;;;8.85;38.51;101786.47;5010560;28;20041;-60
2022/03/03 09:50:16;;;;;;;24.63;15.93;;;;;;;8.91;37.96;101784.72;5012119;28;20031;-60
2022/03/03 09:52:42;;;;;;;20.95;15.73;;;;;;;9.00;37.45;101782.56;5012391;28;20045;-63
2022/03/03 09:55:08;;;;;;;23.92;15.98;;;;;;;9.08;38.21;101780.41;5010722;28;20030;-61
2022/03/03 09:57:35;;;;;;;22.00;16.20;;;;;;;9.17;36.31;101786.53;5009616;28;20041;-63
2022/03/03 10:00:03;;;;;;;20.63;15.35;;;;;;;9.24;36.64;101794.81;5007145;28;20037;-62
2022/03/03 10:02:29;;;;;;;20.65;16.05;;;;;;;9.29;36.28;101792.22;5006714;28;20022;-62
2022/03/03 10:04:55;;;;;;;22.02;16.25;;;;;;;9.33;35.97;101794.31;5001723;28;20034;-62
2022/03/03 10:07:23;;;;;;;21.48;15.25;;;;;;;9.38;36.62;101788.09;5004356;28;20084;-62
2022/03/03 10:10:00;;;;;;;22.20;14.95;;;;;;;9.43;36.25;101782.78;5006127;28;20034;-63
2022/03/03 10:12:27;;;;;;;20.40;15.45;;;;;;;9.48;35.33;101777.41;5011664;28;20026;-61
2022/03/03 10:15:03;;;;;;;20.35;15.77;;;;;;;9.52;35.00;101788.88;5009688;28;20137;-60
2022/03/03 10:17:38;;;;;;;21.92;16.23;;;;;;;9.56;35.89;101790.13;5005283;28;20033;-60
2022/03/03 10:20:06;;;;;;;18.58;14.32;;;;;;;9.55;34.36;101775.44;5008659;28;20034;-60
2022/03/03 10:22:42;;;;;;;19.15;15.07;;;;;;;9.65;34.84;101772.16;5006482;28;20103;-60
2022/03/03 10:25:13;;;;;;;21.77;14.95;;;;;;;9.69;34.06;101773.41;5005213;28;20057;-60
2022/03/03 10:27:39;;;;;;;21.73;15.52;;;;;;;9.78;34.80;101772.03;5001313;28;20363;-61
2022/03/03 10:30:07;;;;;;;24.27;15.32;;;;;;;9.84;34.85;101770.31;5008456;28;20034;-61
2022/03/03 10:32:35;;;;;;;18.20;14.38;;;;;;;9.92;34.27;101772.78;5000934;28;20037;-61
2022/03/03 10:35:14;;;;;;;20.10;15.50;;;;;;;9.94;34.34;101765.13;5007858;28;20167;-61
2022/03/03 10:37:39;;;;;;;21.45;15.18;;;;;;;9.95;33.50;101755.72;4999888;28;20509;-62
2022/03/03 10:40:09;;;;;;;25.10;15.80;;;;;;;10.01;34.83;101757.56;4989824;28;20022;-62
2022/03/03 10:42:42;;;;;;;18.20;13.85;;;;;;;10.11;34.74;101759.84;4990846;28;20096;-61
2022/03/03 10:45:11;;;;;;;24.70;15.35;;;;;;;10.11;33.76;101748.72;4982982;28;20430;-62
2022/03/03 10:47:37;;;;;;;18.77;14.63;;;;;;;10.19;33.78;101754.00;4989751;28;20054;-62
2022/03/03 10:50:03;;;;;;;17.30;14.23;;;;;;;10.22;32.60;101758.25;4988710;28;20643;-62
2022/03/03 10:52:32;;;;;;;17.88;13.55;;;;;;;10.19;32.20;101755.91;4986116;28;20043;-61
2022/03/03 10:55:01;;;;;;;17.25;13.30;;;;;;;10.27;32.55;101750.94;4991337;28;20186;-62
2022/03/03 10:57:44;;;;;;;20.55;13.45;;;;;;;10.38;33.87;101760.44;4990972;28;20112;-63
2022/03/03 11:00:25;;;;;;;20.52;13.98;;;;;;;10.39;32.69;101750.19;4989333;28;20026;-63
2022/03/03 11:02:55;;;;;;;17.88;14.40;;;;;;;10.44;32.64;101756.75;4986400;28;20033;-64
2022/03/03 11:05:25;;;;;;;18.08;13.68;;;;;;;10.56;32.45;101745.72;4989434;28;20385;-63
2022/03/03 11:07:53;;;;;;;19.67;14.50;;;;;;;10.46;31.31;101756.53;4989768;28;20428;-63
2022/03/03 11:10:21;;;;;;;21.70;14.85;;;;;;;10.41;32.25;101743.31;4985521;28;20027;-64
2022/03/03 11:12:47;;;;;;;18.83;14.27;;;;;;;10.44;32.54;101751.19;4989957;28;20030;-64
2022/03/03 11:15:14;;;;;;;17.55;13.85;;;;;;;10.46;32.29;101750.97;4983351;28;20030;-63
2022/03/03 11:17:41;;;;;;;19.73;14.10;;;;;;;10.51;33.36;101745.56;4991662;28;20069;-64
2022/03/03 11:20:09;;;;;;;19.00;14.98;;;;;;;10.52;33.16;101745.31;4988394;28;20030;-62